createdAt,value
2022-12-23T00:01:55.428Z,2.40
2022-12-23T00:04:22.487Z,2.50
2022-12-23T00:06:49.625Z,2.50
2022-12-23T00:09:16.605Z,2.50
2022-12-23T00:12:03.465Z,2.40
2022-12-23T00:14:48.868Z,2.40
2022-12-23T00:17:22.692Z,2.40
2022-12-23T00:19:50.264Z,2.40
2022-12-23T00:22:17.219Z,2.50
2022-12-23T00:24:44.204Z,2.50
2022-12-23T00:27:11.332Z,2.40
2022-12-23T00:29:38.296Z,2.40
2022-12-23T00:32:05.484Z,2.40
2022-12-23T00:34:45.653Z,2.40
2022-12-23T00:37:15.383Z,2.40
2022-12-23T00:40:06.134Z,2.40
2022-12-23T00:42:52.271Z,2.40
2022-12-23T00:45:19.467Z,2.40
2022-12-23T00:48:05.943Z,2.40
2022-12-23T00:50:35.225Z,2.40
2022-12-23T00:53:02.544Z,2.40
2022-12-23T00:55:29.499Z,2.40
2022-12-23T00:57:56.578Z,2.40
2022-12-23T01:00:43.679Z,2.40
2022-12-23T01:03:33.527Z,2.40
2022-12-23T01:06:02.256Z,2.40
2022-12-23T01:08:29.510Z,2.50
2022-12-23T01:10:56.490Z,2.40
2022-12-23T01:13:23.586Z,2.50
2022-12-23T01:15:54.171Z,2.40
2022-12-23T01:18:27.809Z,2.40
2022-12-23T01:21:15.691Z,2.50
2022-12-23T01:23:43.710Z,2.40
2022-12-23T01:26:11.241Z,2.40
2022-12-23T01:28:40.499Z,2.40
2022-12-23T01:31:10.292Z,2.40
2022-12-23T01:33:37.202Z,2.40
2022-12-23T01:36:05.709Z,2.40
2022-12-23T01:38:32.757Z,2.30
2022-12-23T01:41:00.143Z,2.30
2022-12-23T01:43:47.578Z,2.30
2022-12-23T01:46:14.806Z,2.30
2022-12-23T01:48:43.936Z,2.30
2022-12-23T01:51:16.343Z,2.30
2022-12-23T01:53:44.971Z,2.30
2022-12-23T01:56:27.052Z,2.40
2022-12-23T01:58:56.973Z,2.40
2022-12-23T02:01:43.427Z,2.40
2022-12-23T02:04:12.069Z,2.40
2022-12-23T02:07:00.828Z,2.40
2022-12-23T02:09:29.500Z,2.40
2022-12-23T02:11:59.411Z,2.40
2022-12-23T02:14:51.796Z,2.40
2022-12-23T02:17:25.764Z,2.40
2022-12-23T02:20:02.270Z,2.30
2022-12-23T02:22:48.219Z,2.30
2022-12-23T02:25:15.172Z,2.30
2022-12-23T02:27:44.809Z,2.40
2022-12-23T02:30:27.164Z,2.40
2022-12-23T02:33:09.338Z,2.50
2022-12-23T02:35:54.689Z,2.60
2022-12-23T02:38:32.014Z,2.50
2022-12-23T02:41:04.869Z,2.50
2022-12-23T02:43:43.745Z,2.60
2022-12-23T02:46:20.113Z,2.70
2022-12-23T02:48:50.816Z,2.70
2022-12-23T02:51:20.807Z,2.80
2022-12-23T02:53:56.920Z,2.80
2022-12-23T02:56:32.051Z,2.70
2022-12-23T02:59:02.391Z,2.60
2022-12-23T03:01:32.006Z,2.60
2022-12-23T03:03:59.336Z,2.60
2022-12-23T03:06:32.087Z,2.50
2022-12-23T03:09:00.457Z,2.50
2022-12-23T03:11:40.421Z,2.60
2022-12-23T03:14:07.349Z,2.60
2022-12-23T03:16:34.377Z,2.60
2022-12-23T03:19:21.657Z,2.60
2022-12-23T03:21:48.573Z,2.60
2022-12-23T03:24:15.567Z,2.60
2022-12-23T03:26:48.185Z,2.60
2022-12-23T03:29:15.113Z,2.70
2022-12-23T03:31:42.841Z,2.70
2022-12-23T03:34:12.151Z,2.70
2022-12-23T03:36:41.931Z,2.70
2022-12-23T03:39:23.816Z,2.70
2022-12-23T03:42:02.350Z,2.70
2022-12-23T03:44:51.774Z,2.70
2022-12-23T03:47:30.433Z,2.60
2022-12-23T03:50:00.476Z,2.60
2022-12-23T03:52:30.840Z,2.60
2022-12-23T03:55:00.757Z,2.60
2022-12-23T03:57:57.444Z,2.60
2022-12-23T04:00:25.401Z,2.50
2022-12-23T04:02:59.408Z,2.60
2022-12-23T04:05:47.821Z,2.50
2022-12-23T04:08:32.899Z,2.50
2022-12-23T04:11:00.759Z,2.50
2022-12-23T04:13:28.570Z,2.60
2022-12-23T04:15:57.625Z,2.70
2022-12-23T04:18:27.117Z,2.70
2022-12-23T04:20:54.198Z,2.70
2022-12-23T04:23:21.235Z,2.60
2022-12-23T04:25:48.162Z,2.60
2022-12-23T04:28:15.218Z,2.70
2022-12-23T04:30:42.222Z,2.70
2022-12-23T04:33:10.839Z,2.70
2022-12-23T04:35:37.972Z,2.70
2022-12-23T04:38:04.921Z,2.70
2022-12-23T04:40:39.951Z,2.70
2022-12-23T04:43:13.609Z,2.70
2022-12-23T04:45:40.528Z,2.60
2022-12-23T04:48:07.589Z,2.60
2022-12-23T04:50:34.480Z,2.70
2022-12-23T04:53:01.457Z,2.60
2022-12-23T04:55:28.409Z,2.60
2022-12-23T04:57:55.349Z,2.60
2022-12-23T05:00:22.497Z,2.70
2022-12-23T05:02:52.070Z,2.70
2022-12-23T05:05:21.417Z,2.70
2022-12-23T05:07:49.630Z,2.80
2022-12-23T05:10:16.618Z,2.80
2022-12-23T05:12:43.595Z,2.80
2022-12-23T05:15:17.167Z,2.80
2022-12-23T05:18:04.003Z,2.80
2022-12-23T05:20:37.640Z,2.70
2022-12-23T05:23:04.530Z,2.60
2022-12-23T05:25:33.060Z,2.60
2022-12-23T05:28:00.046Z,2.70
2022-12-23T05:30:27.061Z,2.70
2022-12-23T05:33:07.048Z,2.70
2022-12-23T05:35:40.546Z,2.70
2022-12-23T05:38:07.668Z,2.70
2022-12-23T05:40:34.638Z,2.80
2022-12-23T05:43:02.539Z,2.80
2022-12-23T05:45:29.502Z,2.80
2022-12-23T05:47:56.513Z,2.90
2022-12-23T05:50:23.448Z,2.90
2022-12-23T05:52:50.423Z,2.80
2022-12-23T05:55:17.393Z,2.80
2022-12-23T05:57:44.279Z,2.70
2022-12-23T06:00:11.389Z,2.70
2022-12-23T06:02:41.311Z,2.80
2022-12-23T06:05:08.755Z,2.90
2022-12-23T06:07:35.767Z,2.90
2022-12-23T06:10:02.778Z,2.90
2022-12-23T06:12:29.826Z,2.90
2022-12-23T06:14:56.800Z,2.90
2022-12-23T06:17:23.760Z,2.90
2022-12-23T06:19:50.765Z,2.80
2022-12-23T06:22:18.000Z,2.80
2022-12-23T06:24:45.031Z,2.80
2022-12-23T06:27:12.243Z,2.90
2022-12-23T06:29:46.332Z,2.90
2022-12-23T06:32:19.736Z,2.90
2022-12-23T06:34:46.872Z,3.00
2022-12-23T06:37:13.833Z,2.90
2022-12-23T06:39:47.247Z,3.00
2022-12-23T06:42:33.967Z,2.90
2022-12-23T06:45:08.105Z,3.00
2022-12-23T06:47:35.057Z,2.90
2022-12-23T06:50:03.768Z,2.90
2022-12-23T06:52:36.692Z,3.00
2022-12-23T06:55:03.791Z,3.00
2022-12-23T06:57:30.695Z,3.00
2022-12-23T06:59:57.659Z,2.90
2022-12-23T07:02:24.788Z,2.80
2022-12-23T07:04:51.776Z,2.80
2022-12-23T07:07:18.791Z,2.80
2022-12-23T07:09:45.878Z,2.80
2022-12-23T07:12:12.790Z,2.80
2022-12-23T07:14:39.711Z,2.80
2022-12-23T07:17:06.810Z,2.80
2022-12-23T07:19:34.276Z,2.80
2022-12-23T07:22:01.877Z,2.80
2022-12-23T07:24:28.916Z,2.80
2022-12-23T07:26:56.228Z,2.80
2022-12-23T07:29:36.048Z,2.80
2022-12-23T07:32:19.212Z,2.80
2022-12-23T07:34:59.885Z,2.90
2022-12-23T07:37:26.786Z,2.90
2022-12-23T07:39:53.720Z,2.90
2022-12-23T07:45:07.788Z,2.90
2022-12-23T07:47:34.689Z,2.90
2022-12-23T07:50:03.681Z,2.90
2022-12-23T07:52:30.657Z,2.90
2022-12-23T07:54:57.595Z,2.90
2022-12-23T07:57:24.559Z,2.90
2022-12-23T07:59:51.605Z,2.90
2022-12-23T08:02:18.605Z,2.90
2022-12-23T08:04:46.465Z,2.90
2022-12-23T08:07:13.855Z,2.90
2022-12-23T08:09:47.174Z,2.90
2022-12-23T08:12:14.429Z,2.90
2022-12-23T08:14:41.336Z,2.90
2022-12-23T08:17:08.388Z,2.90
2022-12-23T08:19:35.415Z,3.00
2022-12-23T08:22:02.574Z,3.00
2022-12-23T08:24:29.638Z,2.90
2022-12-23T08:26:58.345Z,3.00
2022-12-23T08:29:25.314Z,3.00
2022-12-23T08:31:54.161Z,3.00
2022-12-23T08:34:21.154Z,3.00
2022-12-23T08:36:53.277Z,3.10
2022-12-23T08:39:40.138Z,3.10
2022-12-23T08:42:20.242Z,3.10
2022-12-23T08:45:07.124Z,3.20
2022-12-23T08:48:01.371Z,3.10
2022-12-23T08:50:42.735Z,3.10
2022-12-23T08:53:29.233Z,3.10
2022-12-23T08:56:11.280Z,3.20
2022-12-23T08:59:03.186Z,3.20
2022-12-23T09:01:50.359Z,3.30
2022-12-23T09:04:30.141Z,3.20
2022-12-23T09:07:10.336Z,3.20
2022-12-23T09:09:43.944Z,3.20
2022-12-23T09:12:17.425Z,3.20
2022-12-23T09:14:51.007Z,3.30
2022-12-23T09:17:17.960Z,3.30
2022-12-23T09:19:50.332Z,3.30
2022-12-23T09:22:26.892Z,3.30
2022-12-23T09:24:53.894Z,3.30
2022-12-23T09:27:20.849Z,3.40
2022-12-23T09:29:47.796Z,3.40
2022-12-23T09:32:14.841Z,3.50
2022-12-23T09:34:41.740Z,3.50
2022-12-23T09:37:08.882Z,3.60
2022-12-23T09:39:35.886Z,3.60
2022-12-23T09:42:21.109Z,3.60
2022-12-23T09:44:48.184Z,3.60
2022-12-23T09:47:17.433Z,3.60
2022-12-23T09:50:05.585Z,3.50
2022-12-23T09:52:47.965Z,3.50
2022-12-23T09:55:15.240Z,3.50
2022-12-23T09:57:45.565Z,3.50
2022-12-23T10:00:16.990Z,3.60
2022-12-23T10:02:50.018Z,3.60
2022-12-23T10:05:30.512Z,3.60
2022-12-23T10:07:57.429Z,3.70
2022-12-23T10:10:33.537Z,3.70
2022-12-23T10:13:02.398Z,3.60
2022-12-23T10:15:37.911Z,3.60
2022-12-23T10:18:15.590Z,3.60
2022-12-23T10:21:02.316Z,3.60
2022-12-23T10:23:39.963Z,3.60
2022-12-23T10:26:17.523Z,3.60
2022-12-23T10:28:44.460Z,3.60
2022-12-23T10:34:38.128Z,3.50
2022-12-23T10:37:23.407Z,3.50
2022-12-23T10:40:25.297Z,3.60
2022-12-23T10:43:15.207Z,3.60
2022-12-23T10:46:20.412Z,3.60
2022-12-23T10:49:11.224Z,3.60
2022-12-23T10:51:56.609Z,3.60
2022-12-23T10:54:29.389Z,3.60
2022-12-23T10:56:56.642Z,3.70
2022-12-23T10:59:26.861Z,3.90
2022-12-23T11:02:17.130Z,3.90
2022-12-23T11:04:46.070Z,3.90
2022-12-23T11:10:07.515Z,3.90
2022-12-23T11:12:42.197Z,3.90
2022-12-23T11:15:28.608Z,3.90
2022-12-23T11:18:20.530Z,3.90
2022-12-23T11:21:05.117Z,3.80
2022-12-23T11:23:33.775Z,3.90
2022-12-23T11:26:05.682Z,3.90
2022-12-23T11:28:40.385Z,3.90
2022-12-23T11:31:39.358Z,3.90
2022-12-23T11:34:22.443Z,3.80
2022-12-23T11:37:09.295Z,3.90
2022-12-23T11:39:52.397Z,3.90
2022-12-23T11:42:40.325Z,3.80
2022-12-23T11:45:34.366Z,3.90
2022-12-23T11:48:41.262Z,3.90
2022-12-23T11:51:24.681Z,3.90
2022-12-23T11:53:58.916Z,3.90
2022-12-23T11:56:29.048Z,3.90
2022-12-23T11:59:03.266Z,3.90
2022-12-23T12:01:30.279Z,3.90
2022-12-23T12:03:59.899Z,4.00
2022-12-23T12:06:28.488Z,4.00
2022-12-23T12:08:57.914Z,4.00
2022-12-23T12:11:29.921Z,4.10
2022-12-23T12:14:00.534Z,4.00
2022-12-23T12:16:31.229Z,4.00
2022-12-23T12:19:02.221Z,4.00
2022-12-23T12:21:31.887Z,4.00
2022-12-23T12:24:17.707Z,4.00
2022-12-23T12:26:51.361Z,4.00
2022-12-23T12:29:19.041Z,3.90
2022-12-23T12:31:54.844Z,3.90
2022-12-23T12:34:27.971Z,3.80
2022-12-23T12:37:01.056Z,3.80
2022-12-23T12:39:31.343Z,3.70
2022-12-23T12:42:05.813Z,3.70
2022-12-23T12:44:36.729Z,3.80
2022-12-23T12:47:28.121Z,3.80
2022-12-23T12:50:02.216Z,3.80
2022-12-23T12:52:35.610Z,3.80
2022-12-23T12:55:05.290Z,3.80
2022-12-23T12:57:33.632Z,3.80
2022-12-23T13:00:06.041Z,3.80
2022-12-23T13:02:56.551Z,3.80
2022-12-23T13:05:55.784Z,3.90
2022-12-23T13:08:53.449Z,3.90
2022-12-23T13:11:40.454Z,3.90
2022-12-23T13:14:20.501Z,3.90
2022-12-23T13:17:24.581Z,3.90
2022-12-23T13:20:07.619Z,3.90
2022-12-23T13:23:10.196Z,3.90
2022-12-23T13:25:56.100Z,4.00
2022-12-23T13:28:30.754Z,4.00
2022-12-23T13:31:03.238Z,4.00
2022-12-23T13:33:35.744Z,4.00
2022-12-23T13:36:06.912Z,4.00
2022-12-23T13:38:52.114Z,3.90
2022-12-23T13:41:31.756Z,3.90
2022-12-23T13:44:13.519Z,3.90
2022-12-23T13:47:07.343Z,3.90
2022-12-23T13:49:40.227Z,3.90
2022-12-23T13:52:11.627Z,3.90
2022-12-23T13:55:00.140Z,3.90
2022-12-23T13:57:46.895Z,3.90
2022-12-23T14:00:16.730Z,3.90
2022-12-23T14:02:51.534Z,3.90
2022-12-23T14:05:27.565Z,3.90
2022-12-23T14:07:54.723Z,3.90
2022-12-23T14:10:22.901Z,3.90
2022-12-23T14:12:50.622Z,3.90
2022-12-23T14:15:27.696Z,4.00
2022-12-23T14:18:04.388Z,3.90
2022-12-23T14:20:34.911Z,4.00
2022-12-23T14:23:27.560Z,3.90
2022-12-23T14:25:57.441Z,3.90
2022-12-23T14:28:35.320Z,3.90
2022-12-23T14:31:03.465Z,3.90
2022-12-23T14:33:37.195Z,3.80
2022-12-23T14:36:15.065Z,3.80
2022-12-23T14:38:42.110Z,3.80
2022-12-23T14:41:23.404Z,3.80
2022-12-23T14:43:55.702Z,3.80
2022-12-23T14:46:35.029Z,3.80
2022-12-23T14:49:38.350Z,3.70
2022-12-23T14:52:02.581Z,3.70
2022-12-23T14:54:55.116Z,3.70
2022-12-23T14:57:30.155Z,3.80
2022-12-23T15:00:02.792Z,3.70
2022-12-23T15:02:35.924Z,3.80
2022-12-23T15:05:03.041Z,3.80
2022-12-23T15:07:34.384Z,3.80
2022-12-23T15:10:09.349Z,3.80
2022-12-23T15:12:37.951Z,3.80
2022-12-23T15:15:06.707Z,3.70
2022-12-23T15:17:34.985Z,3.80
2022-12-23T15:20:11.175Z,3.80
2022-12-23T15:22:38.872Z,3.70
2022-12-23T15:25:06.152Z,3.70
2022-12-23T15:27:35.487Z,3.70
2022-12-23T15:30:02.667Z,3.80
2022-12-23T15:32:36.807Z,3.80
2022-12-23T15:35:12.862Z,3.80
2022-12-23T15:37:40.461Z,3.80
2022-12-23T15:40:13.337Z,3.80
2022-12-23T15:42:46.422Z,3.80
2022-12-23T15:45:32.277Z,3.80
2022-12-23T15:47:59.593Z,3.80
2022-12-23T15:50:27.287Z,3.80
2022-12-23T15:53:00.732Z,3.80
2022-12-23T15:55:35.669Z,3.80
2022-12-23T15:58:03.910Z,3.80
2022-12-23T16:00:41.112Z,3.80
2022-12-23T16:03:23.753Z,3.80
2022-12-23T16:05:50.878Z,3.80
2022-12-23T16:08:19.343Z,3.80
2022-12-23T16:11:19.211Z,3.80
2022-12-23T16:13:58.866Z,3.70
2022-12-23T16:16:40.215Z,3.70
2022-12-23T16:19:27.162Z,3.70
2022-12-23T16:21:54.101Z,3.70
2022-12-23T16:24:21.059Z,3.70
2022-12-23T16:26:48.112Z,3.70
2022-12-23T16:29:15.318Z,3.70
2022-12-23T16:31:51.022Z,3.70
2022-12-23T16:34:27.682Z,3.70
2022-12-23T16:37:01.243Z,3.70
2022-12-23T16:39:28.165Z,3.70
2022-12-23T16:41:55.178Z,3.70
2022-12-23T16:44:22.106Z,3.70
2022-12-23T16:46:50.577Z,3.80
2022-12-23T16:49:18.991Z,3.80
2022-12-23T16:51:46.632Z,3.80
2022-12-23T16:54:15.492Z,3.70
2022-12-23T16:56:46.877Z,3.70
2022-12-23T16:59:16.399Z,3.70
2022-12-23T17:01:44.681Z,3.80
2022-12-23T17:04:12.228Z,3.80
2022-12-23T17:06:40.826Z,3.70
2022-12-23T17:09:10.408Z,3.70
2022-12-23T17:11:40.085Z,3.80
2022-12-23T17:14:22.856Z,3.80
2022-12-23T17:17:03.331Z,3.80
2022-12-23T17:19:50.612Z,3.90
2022-12-23T17:22:31.714Z,3.90
2022-12-23T17:24:59.255Z,3.90
2022-12-23T17:27:26.359Z,3.90
2022-12-23T17:29:53.370Z,3.90
2022-12-23T17:32:20.418Z,3.90
2022-12-23T17:34:47.537Z,3.90
2022-12-23T17:37:20.240Z,3.90
2022-12-23T17:39:47.779Z,4.00
2022-12-23T17:42:25.169Z,3.90
2022-12-23T17:44:52.954Z,4.00
2022-12-23T17:47:21.252Z,4.00
2022-12-23T17:49:48.746Z,4.00
2022-12-23T17:52:48.739Z,4.00
2022-12-23T17:55:23.859Z,4.00
2022-12-23T17:57:51.836Z,4.00
2022-12-23T18:00:28.107Z,4.10
2022-12-23T18:03:00.851Z,4.00
2022-12-23T18:05:29.097Z,4.00
2022-12-23T18:07:58.418Z,4.00
2022-12-23T18:10:26.782Z,4.10
2022-12-23T18:12:55.127Z,4.10
2022-12-23T18:15:29.797Z,4.00
2022-12-23T18:18:12.951Z,4.00
2022-12-23T18:20:40.794Z,4.00
2022-12-23T18:23:11.332Z,4.00
2022-12-23T18:25:38.322Z,4.00
2022-12-23T18:28:05.323Z,4.00
2022-12-23T18:30:32.304Z,4.00
2022-12-23T18:32:59.434Z,4.00
2022-12-23T18:35:28.430Z,3.90
2022-12-23T18:38:08.665Z,3.90
2022-12-23T18:40:52.555Z,4.00
2022-12-23T18:43:39.802Z,4.00
2022-12-23T18:46:22.727Z,4.00
2022-12-23T18:48:56.355Z,4.00
2022-12-23T18:51:23.869Z,3.90
2022-12-23T18:53:51.205Z,4.00
2022-12-23T18:56:21.655Z,3.90
2022-12-23T18:58:48.977Z,3.90
2022-12-23T19:01:16.571Z,3.90
2022-12-23T19:03:43.854Z,3.90
2022-12-23T19:06:12.488Z,4.00
2022-12-23T19:08:39.582Z,3.90
2022-12-23T19:11:17.766Z,3.90
2022-12-23T19:13:45.146Z,4.00
2022-12-23T19:16:13.876Z,3.90
2022-12-23T19:18:41.261Z,3.90
2022-12-23T19:21:10.166Z,3.90
2022-12-23T19:23:37.510Z,3.90
2022-12-23T19:26:06.296Z,3.90
2022-12-23T19:28:33.865Z,3.90
2022-12-23T19:31:00.881Z,3.90
2022-12-23T19:33:27.896Z,3.90
2022-12-23T19:35:54.797Z,3.90
2022-12-23T19:38:21.888Z,3.90
2022-12-23T19:40:56.268Z,3.90
2022-12-23T19:43:23.305Z,3.70
2022-12-23T19:45:57.729Z,3.60
2022-12-23T19:48:25.352Z,3.40
2022-12-23T19:50:57.186Z,3.30
2022-12-23T19:53:24.166Z,3.20
2022-12-23T19:56:21.272Z,3.20
2022-12-23T19:58:48.940Z,3.10
2022-12-23T20:01:30.829Z,3.10
2022-12-23T20:04:04.434Z,3.10
2022-12-23T20:06:38.356Z,3.10
2022-12-23T20:09:06.595Z,3.10
2022-12-23T20:11:34.780Z,3.10
2022-12-23T20:14:01.825Z,3.10
2022-12-23T20:16:29.796Z,3.10
2022-12-23T20:18:57.259Z,3.10
2022-12-23T20:21:24.276Z,3.10
2022-12-23T20:23:51.288Z,3.10
2022-12-23T20:26:18.908Z,3.10
2022-12-23T20:28:46.073Z,3.00
2022-12-23T20:31:22.737Z,3.10
2022-12-23T20:34:10.891Z,3.00
2022-12-23T20:36:45.022Z,3.00
2022-12-23T20:39:12.108Z,2.90
2022-12-23T20:41:39.058Z,2.90
2022-12-23T20:46:53.378Z,2.80
2022-12-23T20:49:20.498Z,2.80
2022-12-23T20:51:47.408Z,2.80
2022-12-23T20:54:14.553Z,2.70
2022-12-23T20:56:41.435Z,2.70
2022-12-23T20:59:15.036Z,2.70
2022-12-23T21:01:42.463Z,2.70
2022-12-23T21:04:11.838Z,2.70
2022-12-23T21:06:41.652Z,2.60
2022-12-23T21:09:09.790Z,2.60
2022-12-23T21:11:38.442Z,2.70
2022-12-23T21:14:13.184Z,2.60
2022-12-23T21:16:59.858Z,2.60
2022-12-23T21:19:34.842Z,2.60
2022-12-23T21:22:03.299Z,2.60
2022-12-23T21:24:30.243Z,2.60
2022-12-23T21:26:57.461Z,2.50
2022-12-23T21:29:24.925Z,2.40
2022-12-23T21:31:52.052Z,2.30
2022-12-23T21:34:19.202Z,2.30
2022-12-23T21:36:46.206Z,2.30
2022-12-23T21:39:14.777Z,2.20
2022-12-23T21:41:42.366Z,2.20
2022-12-23T21:44:10.703Z,2.20
2022-12-23T21:46:37.869Z,2.20
2022-12-23T21:49:04.891Z,2.30
2022-12-23T21:51:39.497Z,2.30
2022-12-23T21:54:10.460Z,2.20
2022-12-23T21:56:50.973Z,2.20
2022-12-23T21:59:34.954Z,2.10
2022-12-23T22:02:12.066Z,2.10
2022-12-23T22:04:39.057Z,2.10
2022-12-23T22:07:06.015Z,2.10
2022-12-23T22:09:33.694Z,2.10
2022-12-23T22:12:00.649Z,2.10
2022-12-23T22:14:27.556Z,2.00
2022-12-23T22:16:54.620Z,2.00
2022-12-23T22:19:21.675Z,1.80
2022-12-23T22:21:48.807Z,1.80
2022-12-23T22:24:15.738Z,1.80
2022-12-23T22:26:42.735Z,1.80
2022-12-23T22:29:10.681Z,1.80
2022-12-23T22:31:37.680Z,1.80
2022-12-23T22:34:04.887Z,1.80
2022-12-23T22:36:32.191Z,1.90
2022-12-23T22:39:19.465Z,1.90
2022-12-23T22:41:47.508Z,1.90
2022-12-23T22:44:15.233Z,1.90
2022-12-23T22:46:42.880Z,1.90
2022-12-23T22:49:13.727Z,1.80
2022-12-23T22:51:41.497Z,1.80
2022-12-23T22:54:09.525Z,1.80
2022-12-23T22:56:50.061Z,1.80
2022-12-23T22:59:24.917Z,1.70
2022-12-23T23:01:52.462Z,1.70
2022-12-23T23:04:19.533Z,1.80
2022-12-23T23:06:46.412Z,1.80
2022-12-23T23:09:14.747Z,1.80
2022-12-23T23:11:43.372Z,1.80
2022-12-23T23:14:11.298Z,1.90
2022-12-23T23:16:38.668Z,1.80
2022-12-23T23:19:06.492Z,1.80
2022-12-23T23:21:34.516Z,1.80
2022-12-23T23:24:01.462Z,1.70
2022-12-23T23:26:28.630Z,1.70
2022-12-23T23:28:56.771Z,1.80
2022-12-23T23:34:12.026Z,1.80
2022-12-23T23:36:39.374Z,1.80
2022-12-23T23:39:06.785Z,1.90
2022-12-23T23:41:42.040Z,1.90
2022-12-23T23:44:15.730Z,1.90
2022-12-23T23:46:42.731Z,1.90
2022-12-23T23:49:10.198Z,1.90
2022-12-23T23:51:37.450Z,1.80
2022-12-23T23:54:04.421Z,1.80
2022-12-23T23:56:37.824Z,1.80
2022-12-23T23:59:06.062Z,1.70
